Archer City, TX

9:06 AM CDT on July 29, 2014 (GMT -0500)
Bowie (K0F2) Elev 1102 ft | 33.60 °N, 97.77 °W | Change Station

Current weather conditions updated 11 minutes ago

Mostly Cloudy
Mostly Cloudy
74 °F
Feels Like 74 °F
N
5
Wind Variable Wind from East

Today is forecast to be Much Warmer than yesterday. Slight chance of a thunderstorm.

Today
High -- | Low -- °F
--% Chance of Precip.
Yesterday
High -- | Low -- °F
Precip. -- in
6:44 AM 8:36 PM
Waxing Crescent, 6% visible
Pressure 30.18 in
Visibility 10.0 miles
Clouds Mostly Cloudy 11000 ft
Dew Point 66 °F
Humidity 76%
Rainfall 0.00 in
Snow Depth Not available.
UV 1 out of 12
Pollen 4.70 out of 12
Air Quality Not available.
Flu Activity Not available.
METAR K0F2 291355Z AUTO 10004KT 10SM BKN110 23/19 A3018 RMK AO2 T02320188

More Conditions Fewer Conditions

Pressure 30.18 in
Visibility 10.0 miles
Clouds Mostly Cloudy 11000 ft
Dew Point 66 °F
Humidity 76%
Rainfall 0.00 in
Snow Depth Not available.
UV 1 out of 12
Pollen 4.70 out of 12
Air Quality Not available.
Flu Activity Not available.
METAR K0F2 291355Z AUTO 10004KT 10SM BKN110 23/19 A3018 RMK AO2 T02320188

More Conditions Fewer Conditions

10-Day Weather Forecast

Almanac

Astronomy

Jul. 29, 2014 Rise Set
Actual Time 6:44 AM CDT 8:36 PM CDT
Civil Twilight 6:17 AM CDT 9:04 PM CDT
Nautical Twilight 5:44 AM CDT 9:37 PM CDT
Astronomical Twilight 5:08 AM CDT 10:12 PM CDT
Moon 9:12 AM CDT 10:01 PM CDT
Length of Visible Light 14h 46m
Length of Day
13h 52m
Tomorrow will be 1m 30s shorter.
Waxing Crescent, 6% of the Moon is Illuminated
Today
Waxing Crescent
Aug 3
First Quarter
Aug 10
Full
Aug 17
Last Quarter
Aug 25
New

Today's Extremes

State Highs State Lows

Community

WunderPhotos

Upload Photos

1,738,732 photos uploaded!

Nearby

Snow Depth

Station Depth Elevation
No new snow has been reported.

Earthquake Activity

City Distance Mag. Time & Date
No recent earthquake activity has been reported nearby.
Minimum magnitude displayed is 2.5.

Coastal Water Temperatures

Place Temperature
No Stations Reporting

Nearby Weather Stations

Station Location Temp. Heat Index Dew Point Humidity Wind Precip. Elev Updated Type
Parker Rd, Wichita Falls, TX 73.2 °F - 72 °F 95% SSE  at  4.2 mph - / hr 1030 ft 8:56 AM CDT Normal
Southwest Prky/Rhea Rd., WICHITA FALLS, TX 73.4 °F 73 °F 68 °F 82% South  at  1.1 mph 0.00 in / hr 984 ft 9:01 AM CDT Normal
WichitaFalls, TX 72.0 °F - 69 °F 89% NNE  at  0.0 mph - / hr 991 ft 8:53 AM CDT Normal
Wedgewood, Wichita Falls, TX 74.3 °F 74 °F 70 °F 86% South  at  4.0 mph 0.00 in / hr 961 ft 9:03 AM CDT Normal
Hirschi, Wichita Falls, TX 73.6 °F 72 °F 71 °F 90% SSE  at  0.0 mph 0.00 in / hr 965 ft 8:53 AM CDT Normal

Show More Stations Show Fewer Stations